createdAt,value
2018-01-30T00:01:29.664Z,3.20
2018-01-30T00:03:57.088Z,2.60
2018-01-30T00:06:24.502Z,3.27
2018-01-30T00:08:51.898Z,3.73
2018-01-30T00:11:19.290Z,4.93
2018-01-30T00:13:46.673Z,2.57
2018-01-30T00:16:14.070Z,2.90
2018-01-30T00:18:41.486Z,2.90
2018-01-30T00:21:08.907Z,3.27
2018-01-30T00:23:36.313Z,2.80
2018-01-30T00:26:03.738Z,2.30
2018-01-30T00:28:31.162Z,2.70
2018-01-30T00:30:58.549Z,3.80
2018-01-30T00:33:25.965Z,2.67
2018-01-30T00:35:53.359Z,3.10
2018-01-30T00:38:20.778Z,3.00
2018-01-30T00:40:48.186Z,3.60
2018-01-30T00:43:16.421Z,3.30
2018-01-30T00:45:43.816Z,2.00
2018-01-30T00:48:11.215Z,3.13
2018-01-30T00:50:38.603Z,3.20
2018-01-30T00:53:06.022Z,2.90
2018-01-30T00:55:33.463Z,2.37
2018-01-30T00:58:00.858Z,2.60
2018-01-30T01:00:28.252Z,3.00
2018-01-30T01:02:55.658Z,2.83
2018-01-30T01:05:23.073Z,4.90
2018-01-30T01:07:50.536Z,3.13
2018-01-30T01:10:17.914Z,3.30
2018-01-30T01:12:45.313Z,3.10
2018-01-30T01:15:12.698Z,3.67
2018-01-30T01:17:40.103Z,2.73
2018-01-30T01:20:07.482Z,1.47
2018-01-30T01:22:34.878Z,1.23
2018-01-30T01:25:02.266Z,1.13
2018-01-30T01:27:29.678Z,1.30
2018-01-30T01:29:57.070Z,2.20
2018-01-30T01:32:24.468Z,1.80
2018-01-30T01:34:51.850Z,1.20
2018-01-30T01:37:19.246Z,1.63
2018-01-30T01:39:46.641Z,1.47
2018-01-30T01:42:14.031Z,1.63
2018-01-30T01:44:41.414Z,1.50
2018-01-30T01:47:08.806Z,2.00
2018-01-30T01:49:36.227Z,1.20
2018-01-30T01:52:04.514Z,1.53
2018-01-30T01:54:31.931Z,2.47
2018-01-30T01:57:00.213Z,3.40
2018-01-30T01:59:27.658Z,2.80
2018-01-30T02:01:55.058Z,4.13
2018-01-30T02:04:22.466Z,3.43
2018-01-30T02:06:49.859Z,3.03
2018-01-30T02:09:17.257Z,3.80
2018-01-30T02:11:44.642Z,4.50
2018-01-30T02:14:12.065Z,3.70
2018-01-30T02:16:39.462Z,3.20
2018-01-30T02:19:06.878Z,3.27
2018-01-30T02:21:34.286Z,3.67
2018-01-30T02:24:01.678Z,3.87
2018-01-30T02:26:29.065Z,3.80
2018-01-30T02:28:56.463Z,3.63
2018-01-30T02:31:23.855Z,5.30
2018-01-30T02:33:51.259Z,4.17
2018-01-30T02:36:18.646Z,4.40
2018-01-30T02:38:46.034Z,4.10
2018-01-30T02:41:13.425Z,3.83
2018-01-30T02:43:40.833Z,4.10
2018-01-30T02:46:08.306Z,4.20
2018-01-30T02:48:35.707Z,3.53
2018-01-30T02:51:03.111Z,4.10
2018-01-30T02:53:30.522Z,4.80
2018-01-30T02:55:57.914Z,3.80
2018-01-30T02:58:25.382Z,5.60
2018-01-30T03:00:52.774Z,3.90
2018-01-30T03:03:20.173Z,5.83
2018-01-30T03:05:47.561Z,5.17
2018-01-30T03:08:14.955Z,4.60
2018-01-30T03:10:42.361Z,3.60
2018-01-30T03:13:09.857Z,4.30
2018-01-30T03:15:37.254Z,4.07
2018-01-30T03:18:04.655Z,4.10
2018-01-30T03:20:32.046Z,3.50
2018-01-30T03:22:59.450Z,3.83
2018-01-30T03:25:26.838Z,3.60
2018-01-30T03:27:54.259Z,4.80
2018-01-30T03:30:21.650Z,4.07
2018-01-30T03:32:49.054Z,4.73
2018-01-30T03:35:16.446Z,4.03
2018-01-30T03:37:43.849Z,4.40
2018-01-30T03:40:11.334Z,3.50
2018-01-30T03:42:38.750Z,3.90
2018-01-30T03:45:06.142Z,4.47
2018-01-30T03:47:33.540Z,3.20
2018-01-30T03:50:00.932Z,4.90
2018-01-30T03:52:28.355Z,3.60
2018-01-30T03:54:55.740Z,3.10
2018-01-30T03:57:23.150Z,4.40
2018-01-30T03:59:50.556Z,4.53
2018-01-30T04:02:17.951Z,3.80
2018-01-30T04:04:45.358Z,3.50
2018-01-30T04:07:12.751Z,4.03
2018-01-30T04:09:40.154Z,3.60
2018-01-30T04:12:07.544Z,5.50
2018-01-30T04:14:34.930Z,3.43
2018-01-30T04:17:02.327Z,3.67
2018-01-30T04:19:29.823Z,3.40
2018-01-30T04:21:57.202Z,3.43
2018-01-30T04:24:24.606Z,4.00
2018-01-30T04:26:51.995Z,4.50
2018-01-30T04:29:19.397Z,3.53
2018-01-30T04:31:46.890Z,3.50
2018-01-30T04:34:14.286Z,3.33
2018-01-30T04:36:41.704Z,3.07
2018-01-30T04:39:09.094Z,4.60
2018-01-30T04:41:36.489Z,3.40
2018-01-30T04:44:03.887Z,3.10
2018-01-30T04:46:31.280Z,3.83
2018-01-30T04:48:58.687Z,3.27
2018-01-30T04:51:26.110Z,3.27
2018-01-30T04:53:53.623Z,3.73
2018-01-30T04:56:21.066Z,3.63
2018-01-30T04:58:48.491Z,3.50
2018-01-30T05:01:15.861Z,4.30
2018-01-30T05:03:43.257Z,3.73
2018-01-30T05:06:10.674Z,5.63
2018-01-30T05:08:38.064Z,3.17
2018-01-30T05:11:05.473Z,4.30
2018-01-30T05:13:32.858Z,3.50
2018-01-30T05:16:00.359Z,3.77
2018-01-30T05:18:27.751Z,3.00
2018-01-30T05:20:55.146Z,4.10
2018-01-30T05:23:22.555Z,3.47
2018-01-30T05:25:49.944Z,3.47
2018-01-30T05:28:17.330Z,3.40
2018-01-30T05:30:44.738Z,3.87
2018-01-30T05:33:12.158Z,3.10
2018-01-30T05:35:39.550Z,3.83
2018-01-30T05:38:07.083Z,2.70
2018-01-30T05:40:34.506Z,3.57
2018-01-30T05:43:01.906Z,3.53
2018-01-30T05:45:29.298Z,3.47
2018-01-30T05:47:56.709Z,3.17
2018-01-30T05:50:24.094Z,3.17
2018-01-30T05:52:51.510Z,3.03
2018-01-30T05:55:18.890Z,3.00
2018-01-30T05:57:46.283Z,4.70
2018-01-30T06:00:13.757Z,3.67
2018-01-30T06:02:41.296Z,5.13
2018-01-30T06:05:08.695Z,2.90
2018-01-30T06:07:36.082Z,3.70
2018-01-30T06:10:03.519Z,3.57
2018-01-30T06:12:30.926Z,4.30
2018-01-30T06:14:58.309Z,3.43
2018-01-30T06:17:25.743Z,3.80
2018-01-30T06:19:53.169Z,2.90
2018-01-30T06:22:20.560Z,3.30
2018-01-30T06:24:47.973Z,3.70
2018-01-30T06:27:15.384Z,3.37
2018-01-30T06:29:42.781Z,3.03
2018-01-30T06:32:10.174Z,3.60
2018-01-30T06:34:37.568Z,4.03
2018-01-30T06:37:04.953Z,5.63
2018-01-30T06:39:32.357Z,3.90
2018-01-30T06:41:59.742Z,3.57
2018-01-30T06:44:27.130Z,3.77
2018-01-30T06:46:54.538Z,4.10
2018-01-30T06:49:21.933Z,3.53
2018-01-30T06:51:49.429Z,4.03
2018-01-30T06:54:16.879Z,4.40
2018-01-30T06:56:44.262Z,4.47
2018-01-30T06:59:11.658Z,4.47
2018-01-30T07:01:39.057Z,3.40
2018-01-30T07:04:06.480Z,4.03
2018-01-30T07:06:33.858Z,4.00
2018-01-30T07:09:01.255Z,3.80
2018-01-30T07:11:28.638Z,3.60
2018-01-30T07:13:57.218Z,3.40
2018-01-30T07:16:24.614Z,3.90
2018-01-30T07:18:52.018Z,3.97
2018-01-30T07:21:19.506Z,4.67
2018-01-30T07:23:46.903Z,3.20
2018-01-30T07:26:14.294Z,3.20
2018-01-30T07:28:41.708Z,4.50
2018-01-30T07:31:09.098Z,4.07
2018-01-30T07:33:36.507Z,3.50
2018-01-30T07:36:03.902Z,4.13
2018-01-30T07:38:31.319Z,4.60
2018-01-30T07:40:58.690Z,3.90
2018-01-30T07:43:26.106Z,3.77
2018-01-30T07:45:53.530Z,4.17
2018-01-30T07:48:20.995Z,4.87
2018-01-30T07:50:48.403Z,4.10
2018-01-30T07:53:15.794Z,3.90
2018-01-30T07:55:43.190Z,5.20
2018-01-30T07:58:10.576Z,3.63
2018-01-30T08:00:37.974Z,4.60
2018-01-30T08:03:05.386Z,3.83
2018-01-30T08:05:32.787Z,4.63
2018-01-30T08:08:00.251Z,4.57
2018-01-30T08:10:28.551Z,5.07
2018-01-30T08:12:55.950Z,5.50
2018-01-30T08:15:23.433Z,5.97
2018-01-30T08:17:50.917Z,5.07
2018-01-30T08:20:18.321Z,4.60
2018-01-30T08:22:45.719Z,4.97
2018-01-30T08:25:13.106Z,4.77
2018-01-30T08:27:40.514Z,6.20
2018-01-30T08:30:07.916Z,5.20
2018-01-30T08:32:35.317Z,5.37
2018-01-30T08:35:02.774Z,6.53
2018-01-30T08:37:30.162Z,5.30
2018-01-30T08:39:58.548Z,5.07
2018-01-30T08:42:25.934Z,6.23
2018-01-30T08:44:53.398Z,6.00
2018-01-30T08:47:20.878Z,6.63
2018-01-30T08:49:48.325Z,5.47
2018-01-30T08:52:15.718Z,7.73
2018-01-30T08:54:43.117Z,5.70
2018-01-30T08:57:10.507Z,5.83
2018-01-30T08:59:37.922Z,5.40
2018-01-30T09:02:05.335Z,5.70
2018-01-30T09:04:32.723Z,5.77
2018-01-30T09:07:00.114Z,5.93
2018-01-30T09:09:27.524Z,5.70
2018-01-30T09:11:54.913Z,6.13
2018-01-30T09:14:22.314Z,5.10
2018-01-30T09:16:49.719Z,6.07
2018-01-30T09:19:17.138Z,6.20
2018-01-30T09:21:44.551Z,6.50
2018-01-30T09:24:11.955Z,5.33
2018-01-30T09:26:39.345Z,7.20
2018-01-30T09:29:06.768Z,4.87
2018-01-30T09:31:34.155Z,4.77
2018-01-30T09:34:01.571Z,5.43
2018-01-30T09:36:28.991Z,5.50
2018-01-30T09:38:56.386Z,5.17
2018-01-30T09:41:23.777Z,6.00
2018-01-30T09:43:51.169Z,5.77
2018-01-30T09:46:18.564Z,5.10
2018-01-30T09:48:45.953Z,4.63
2018-01-30T09:51:13.362Z,5.73
2018-01-30T09:53:40.754Z,4.80
2018-01-30T09:56:08.155Z,4.90
2018-01-30T09:58:35.546Z,4.47
2018-01-30T10:01:02.954Z,4.60
2018-01-30T10:03:30.372Z,4.50
2018-01-30T10:05:57.745Z,5.20
2018-01-30T10:08:25.135Z,5.00
2018-01-30T10:10:52.559Z,6.10
2018-01-30T10:13:19.938Z,5.27
2018-01-30T10:15:47.330Z,3.80
2018-01-30T10:18:14.736Z,4.50
2018-01-30T10:20:42.149Z,4.23
2018-01-30T10:23:09.542Z,3.90
2018-01-30T10:25:36.940Z,4.67
2018-01-30T10:28:04.323Z,4.20
2018-01-30T10:30:31.727Z,4.28
2018-01-30T10:32:59.121Z,4.13
2018-01-30T10:35:26.606Z,4.17
2018-01-30T10:37:54.079Z,3.57
2018-01-30T10:40:21.486Z,4.63
2018-01-30T10:42:48.898Z,3.70
2018-01-30T10:45:16.284Z,4.63
2018-01-30T10:47:43.679Z,4.13
2018-01-30T10:50:11.091Z,5.00
2018-01-30T10:52:38.481Z,4.20
2018-01-30T10:55:05.882Z,4.17
2018-01-30T10:57:33.302Z,3.63
2018-01-30T11:00:00.767Z,4.37
2018-01-30T11:02:28.176Z,4.70
2018-01-30T11:04:55.603Z,3.10
2018-01-30T11:07:22.954Z,3.67
2018-01-30T11:09:50.350Z,3.57
2018-01-30T11:12:17.741Z,3.90
2018-01-30T11:14:45.186Z,3.80
2018-01-30T11:17:12.583Z,2.90
2018-01-30T11:19:39.966Z,3.97
2018-01-30T11:22:07.387Z,3.83
2018-01-30T11:24:34.772Z,4.73
2018-01-30T11:27:02.177Z,4.47
2018-01-30T11:29:29.573Z,3.40
2018-01-30T11:31:56.954Z,3.00
2018-01-30T11:34:24.435Z,3.40
2018-01-30T11:36:51.827Z,4.50
2018-01-30T11:39:19.239Z,3.90
2018-01-30T11:41:46.638Z,4.03
2018-01-30T11:44:14.022Z,4.00
2018-01-30T11:46:41.515Z,3.47
2018-01-30T11:49:08.906Z,3.23
2018-01-30T11:51:36.298Z,2.80
2018-01-30T11:54:03.678Z,3.97
2018-01-30T11:56:31.079Z,3.40
2018-01-30T11:58:58.481Z,4.40
2018-01-30T12:01:25.876Z,3.10
2018-01-30T12:03:53.262Z,3.27
2018-01-30T12:06:20.661Z,3.17
2018-01-30T12:08:48.041Z,3.10
2018-01-30T12:11:15.442Z,4.30
2018-01-30T12:13:42.832Z,3.40
2018-01-30T12:16:10.231Z,4.30
2018-01-30T12:18:37.630Z,3.40
2018-01-30T12:21:05.041Z,3.13
2018-01-30T12:23:32.422Z,3.27
2018-01-30T12:25:59.818Z,3.30
2018-01-30T12:28:27.201Z,3.73
2018-01-30T12:30:54.685Z,3.30
2018-01-30T12:33:22.053Z,3.10
2018-01-30T12:35:49.446Z,3.07
2018-01-30T12:38:16.862Z,3.00
2018-01-30T12:40:44.258Z,1.90
2018-01-30T12:43:11.653Z,2.70
2018-01-30T12:45:39.046Z,3.00
2018-01-30T12:48:06.438Z,3.20
2018-01-30T12:50:33.971Z,4.20
2018-01-30T12:53:01.431Z,2.13
2018-01-30T12:55:28.823Z,3.20
2018-01-30T12:57:56.230Z,3.37
2018-01-30T13:00:23.635Z,3.17
2018-01-30T13:02:51.024Z,2.50
2018-01-30T13:05:18.425Z,2.57
2018-01-30T13:07:45.819Z,2.97
2018-01-30T13:10:13.222Z,3.17
2018-01-30T13:12:40.614Z,2.37
2018-01-30T13:15:08.014Z,2.90
2018-01-30T13:17:35.402Z,2.27
2018-01-30T13:20:02.803Z,2.83
2018-01-30T13:22:30.210Z,2.17
2018-01-30T13:24:57.648Z,2.87
2018-01-30T13:27:25.199Z,2.30
2018-01-30T13:29:52.586Z,3.00
2018-01-30T13:32:19.987Z,3.08
2018-01-30T13:34:47.374Z,3.27
2018-01-30T13:37:14.787Z,2.60
2018-01-30T13:39:42.171Z,2.40
2018-01-30T13:42:09.574Z,2.67
2018-01-30T13:44:36.962Z,2.70
2018-01-30T13:47:04.361Z,2.43
2018-01-30T13:49:31.883Z,3.40
2018-01-30T13:51:59.274Z,2.63
2018-01-30T13:54:26.710Z,2.70
2018-01-30T13:56:54.116Z,2.50
2018-01-30T13:59:21.527Z,2.70
2018-01-30T14:01:48.919Z,2.80
2018-01-30T14:04:16.362Z,2.23
2018-01-30T14:06:43.776Z,2.97
2018-01-30T14:09:11.226Z,3.57
2018-01-30T14:11:38.645Z,2.50
2018-01-30T14:14:06.026Z,3.40
2018-01-30T14:16:33.426Z,2.87
2018-01-30T14:19:00.880Z,2.30
2018-01-30T14:21:28.245Z,2.63
2018-01-30T14:23:55.630Z,2.60
2018-01-30T14:26:23.043Z,2.40
2018-01-30T14:28:50.436Z,4.63
2018-01-30T14:31:17.838Z,4.20
2018-01-30T14:33:45.235Z,3.80
2018-01-30T14:36:12.630Z,4.83
2018-01-30T14:38:40.018Z,5.33
2018-01-30T14:41:07.418Z,2.70
2018-01-30T14:43:34.810Z,3.70
2018-01-30T14:46:02.207Z,2.13
2018-01-30T14:48:29.609Z,2.93
2018-01-30T14:50:57.025Z,3.43
2018-01-30T14:53:24.506Z,3.00
2018-01-30T14:55:51.897Z,4.77
2018-01-30T14:58:19.291Z,2.97
2018-01-30T15:00:46.685Z,3.37
2018-01-30T15:03:14.074Z,3.10
2018-01-30T15:05:41.477Z,2.80
2018-01-30T15:08:09.040Z,5.40
2018-01-30T15:10:36.433Z,4.40
2018-01-30T15:13:03.820Z,3.73
2018-01-30T15:15:31.197Z,3.90
2018-01-30T15:17:58.619Z,3.50
2018-01-30T15:20:26.071Z,4.20
2018-01-30T15:22:53.585Z,3.73
2018-01-30T15:25:20.986Z,2.80
2018-01-30T15:27:48.400Z,3.73
2018-01-30T15:30:15.835Z,3.77
2018-01-30T15:32:43.324Z,4.10
2018-01-30T15:35:10.747Z,4.87
2018-01-30T15:37:38.138Z,3.80
2018-01-30T15:40:05.534Z,4.63
2018-01-30T15:42:32.932Z,5.10
2018-01-30T15:45:00.436Z,3.23
2018-01-30T15:47:27.826Z,4.10
2018-01-30T15:49:55.235Z,4.10
2018-01-30T15:52:22.650Z,3.90
2018-01-30T15:54:50.021Z,4.60
2018-01-30T15:57:17.450Z,3.50
2018-01-30T15:59:44.843Z,5.80
2018-01-30T16:02:12.308Z,3.63
2018-01-30T16:04:39.712Z,4.40
2018-01-30T16:07:07.108Z,4.47
2018-01-30T16:09:34.567Z,4.70
2018-01-30T16:12:01.975Z,4.10
2018-01-30T16:14:29.409Z,4.20
2018-01-30T16:16:56.819Z,3.87
2018-01-30T16:19:24.210Z,4.80
2018-01-30T16:21:51.615Z,3.93
2018-01-30T16:24:18.997Z,5.23
2018-01-30T16:26:46.388Z,5.60
2018-01-30T16:29:13.778Z,4.97
2018-01-30T16:31:41.183Z,4.90
2018-01-30T16:34:08.576Z,3.90
2018-01-30T16:36:35.965Z,5.47
2018-01-30T16:39:03.366Z,4.60
2018-01-30T16:41:30.785Z,3.67
2018-01-30T16:43:58.178Z,6.33
2018-01-30T16:46:25.719Z,4.70
2018-01-30T16:48:53.127Z,4.47
2018-01-30T16:51:20.522Z,3.83
2018-01-30T16:53:47.915Z,3.70
2018-01-30T16:56:15.310Z,4.10
2018-01-30T16:58:42.738Z,4.20
2018-01-30T17:01:10.145Z,3.90
2018-01-30T17:03:37.541Z,7.10
2018-01-30T17:06:04.944Z,6.30
2018-01-30T17:08:32.487Z,5.13
2018-01-30T17:10:59.956Z,4.33
2018-01-30T17:13:27.357Z,5.17
2018-01-30T17:15:54.754Z,5.23
2018-01-30T17:18:22.146Z,6.40
2018-01-30T17:20:49.538Z,5.90
2018-01-30T17:23:16.947Z,5.90
2018-01-30T17:25:44.345Z,7.20
2018-01-30T17:28:11.734Z,7.30
2018-01-30T17:30:39.126Z,6.00
2018-01-30T17:33:06.554Z,6.60
2018-01-30T17:35:33.941Z,6.60
2018-01-30T17:38:01.350Z,6.20
2018-01-30T17:40:28.725Z,6.57
2018-01-30T17:42:56.122Z,7.93
2018-01-30T17:45:23.537Z,6.13
2018-01-30T17:47:50.947Z,7.60
2018-01-30T17:50:18.351Z,6.37
2018-01-30T17:52:45.779Z,7.40
2018-01-30T17:55:13.202Z,7.27
2018-01-30T17:57:40.608Z,7.13
2018-01-30T18:00:07.999Z,8.07
2018-01-30T18:02:35.424Z,7.73
2018-01-30T18:05:02.857Z,8.40
2018-01-30T18:07:30.242Z,7.00
2018-01-30T18:09:57.654Z,8.80
2018-01-30T18:12:25.055Z,7.13
2018-01-30T18:14:52.474Z,8.40
2018-01-30T18:17:19.879Z,7.90
2018-01-30T18:19:47.387Z,7.60
2018-01-30T18:22:14.782Z,6.40
2018-01-30T18:24:42.174Z,5.87
2018-01-30T18:27:09.571Z,7.20
2018-01-30T18:29:36.976Z,6.53
2018-01-30T18:32:04.390Z,6.30
2018-01-30T18:34:31.775Z,7.50
2018-01-30T18:36:59.198Z,7.90
2018-01-30T18:39:26.653Z,6.90
2018-01-30T18:41:54.112Z,9.67
2018-01-30T18:44:21.567Z,7.33
2018-01-30T18:46:48.950Z,7.67
2018-01-30T18:49:16.438Z,6.97
2018-01-30T18:51:43.898Z,7.57
2018-01-30T18:54:11.299Z,8.20
2018-01-30T18:56:38.730Z,10.43
2018-01-30T18:59:06.138Z,9.93
2018-01-30T19:01:33.534Z,10.27
2018-01-30T19:04:00.989Z,10.83
2018-01-30T19:06:28.418Z,12.00
2018-01-30T19:08:55.850Z,13.20
2018-01-30T19:11:23.256Z,15.60
2018-01-30T19:13:50.649Z,15.33
2018-01-30T19:16:18.044Z,14.40
2018-01-30T19:18:45.443Z,16.80
2018-01-30T19:21:12.891Z,17.30
2018-01-30T19:23:40.334Z,14.90
2018-01-30T19:26:07.722Z,18.70
2018-01-30T19:28:35.170Z,20.93
2018-01-30T19:31:02.586Z,19.53
2018-01-30T19:33:29.995Z,18.50
2018-01-30T19:35:57.387Z,16.27
2018-01-30T19:38:24.786Z,17.73
2018-01-30T19:40:52.175Z,17.27
2018-01-30T19:43:19.597Z,16.93
2018-01-30T19:45:46.990Z,16.57
2018-01-30T19:48:14.475Z,16.77
2018-01-30T19:50:41.889Z,17.40
2018-01-30T19:53:09.286Z,20.30
2018-01-30T19:55:36.683Z,19.47
2018-01-30T19:58:04.096Z,16.27
2018-01-30T20:00:31.489Z,17.33
2018-01-30T20:02:58.890Z,19.10
2018-01-30T20:05:26.282Z,17.50
2018-01-30T20:07:53.702Z,16.93
2018-01-30T20:10:21.094Z,17.47
2018-01-30T20:12:48.507Z,17.70
2018-01-30T20:15:15.910Z,17.37
2018-01-30T20:17:43.315Z,17.67
2018-01-30T20:20:10.730Z,19.07
2018-01-30T20:22:38.132Z,19.53
2018-01-30T20:25:05.609Z,19.10
2018-01-30T20:27:33.001Z,19.27
2018-01-30T20:30:00.402Z,21.77
2018-01-30T20:32:27.805Z,19.50
2018-01-30T20:34:55.242Z,22.03
2018-01-30T20:37:22.659Z,21.00
2018-01-30T20:39:50.058Z,20.63
2018-01-30T20:42:17.454Z,21.87
2018-01-30T20:44:44.853Z,21.50
2018-01-30T20:47:12.330Z,21.13
2018-01-30T20:49:39.722Z,23.07
2018-01-30T20:52:07.139Z,23.07
2018-01-30T20:54:34.542Z,21.50
2018-01-30T20:57:01.930Z,24.30
2018-01-30T20:59:29.339Z,23.20
2018-01-30T21:01:56.762Z,23.87
2018-01-30T21:04:24.213Z,22.87
2018-01-30T21:06:51.630Z,25.73
2018-01-30T21:09:19.161Z,27.30
2018-01-30T21:11:46.546Z,25.07
2018-01-30T21:14:13.963Z,23.50
2018-01-30T21:16:41.353Z,24.80
2018-01-30T21:19:08.767Z,26.07
2018-01-30T21:21:36.158Z,26.47
2018-01-30T21:24:03.555Z,24.77
2018-01-30T21:26:30.983Z,24.70
2018-01-30T21:28:58.382Z,26.67
2018-01-30T21:31:25.791Z,25.80
2018-01-30T21:33:53.191Z,25.70
2018-01-30T21:36:20.599Z,24.50
2018-01-30T21:38:48.026Z,27.60
2018-01-30T21:41:15.428Z,27.43
2018-01-30T21:43:42.834Z,26.83
2018-01-30T21:46:10.234Z,28.10
2018-01-30T21:48:37.710Z,27.67
2018-01-30T21:51:05.091Z,28.40
2018-01-30T21:53:32.493Z,29.90
2018-01-30T21:55:59.891Z,31.10
2018-01-30T21:58:27.290Z,29.57
2018-01-30T22:00:54.787Z,28.80
2018-01-30T22:03:22.180Z,28.80
2018-01-30T22:05:49.575Z,30.03
2018-01-30T22:08:17.051Z,29.13
2018-01-30T22:10:44.468Z,28.77
2018-01-30T22:13:11.979Z,28.43
2018-01-30T22:15:39.379Z,31.20
2018-01-30T22:18:06.786Z,29.43
2018-01-30T22:20:34.186Z,28.70
2018-01-30T22:23:01.670Z,29.00
2018-01-30T22:25:29.081Z,29.37
2018-01-30T22:27:56.477Z,27.00
2018-01-30T22:30:23.950Z,31.43
2018-01-30T22:32:51.386Z,27.27
2018-01-30T22:35:18.801Z,25.70
2018-01-30T22:37:46.206Z,26.67
2018-01-30T22:40:13.621Z,27.10
2018-01-30T22:42:41.002Z,29.80
2018-01-30T22:45:08.410Z,29.70
